createdAt,value
2022-09-11T00:02:46.864Z,67.11
2022-09-11T00:06:50.232Z,67.10
2022-09-11T00:10:53.188Z,67.43
2022-09-11T00:14:56.371Z,67.31
2022-09-11T00:19:02.987Z,67.35
2022-09-11T00:23:07.070Z,67.50
2022-09-11T00:27:10.501Z,67.48
2022-09-11T00:31:15.659Z,67.63
2022-09-11T00:35:20.116Z,67.70
2022-09-11T00:39:23.279Z,67.97
2022-09-11T00:43:27.747Z,67.81
2022-09-11T00:47:32.234Z,68.43
2022-09-11T00:51:37.884Z,68.09
2022-09-11T00:55:44.542Z,68.32
2022-09-11T00:59:49.389Z,68.20
2022-09-11T01:03:52.603Z,68.56
2022-09-11T01:07:57.681Z,68.63
2022-09-11T01:12:06.783Z,68.69
2022-09-11T01:16:16.294Z,68.84
2022-09-11T01:20:37.208Z,68.91
2022-09-11T01:24:56.654Z,68.93
2022-09-11T01:29:07.525Z,69.04
2022-09-11T01:33:22.999Z,69.23
2022-09-11T01:37:32.152Z,69.28
2022-09-11T01:41:41.548Z,69.39
2022-09-11T01:45:48.449Z,69.65
2022-09-11T01:49:57.764Z,69.59
2022-09-11T01:54:08.668Z,69.87
2022-09-11T01:58:15.927Z,69.89
2022-09-11T02:02:27.561Z,69.72
2022-09-11T02:06:34.902Z,69.54
2022-09-11T02:10:44.379Z,69.69
2022-09-11T02:14:49.915Z,69.81
2022-09-11T02:19:00.864Z,70.12
2022-09-11T02:23:04.027Z,69.80
2022-09-11T02:27:13.144Z,70.00
2022-09-11T02:31:19.980Z,69.97
2022-09-11T02:35:34.435Z,70.04
2022-09-11T02:40:01.722Z,69.96
2022-09-11T02:44:14.790Z,69.98
2022-09-11T02:48:37.500Z,69.96
2022-09-11T02:52:50.495Z,70.17
2022-09-11T02:57:03.386Z,69.56
2022-09-11T03:01:10.180Z,69.87
2022-09-11T03:05:15.738Z,69.82
2022-09-11T03:09:21.257Z,70.17
2022-09-11T03:13:28.227Z,69.77
2022-09-11T03:17:31.274Z,69.87
2022-09-11T03:21:35.920Z,69.98
2022-09-11T03:25:41.154Z,70.02
2022-09-11T03:29:45.116Z,70.12
2022-09-11T03:33:48.155Z,70.34
2022-09-11T03:37:51.934Z,70.19
2022-09-11T03:41:56.759Z,70.30
2022-09-11T03:46:00.619Z,70.47
2022-09-11T03:50:03.794Z,70.55
2022-09-11T03:54:08.890Z,70.46
2022-09-11T03:58:14.181Z,70.46
2022-09-11T04:02:19.666Z,70.60
2022-09-11T04:06:22.907Z,70.57
2022-09-11T04:10:25.998Z,70.59
2022-09-11T04:14:30.808Z,70.54
2022-09-11T04:18:37.820Z,70.60
2022-09-11T04:22:42.119Z,70.66
2022-09-11T04:26:45.546Z,70.60
2022-09-11T04:30:57.195Z,70.60
2022-09-11T04:35:01.792Z,70.74
2022-09-11T04:39:12.255Z,70.66
2022-09-11T04:43:17.417Z,70.44
2022-09-11T04:47:22.591Z,70.51
2022-09-11T04:51:29.207Z,70.52
2022-09-11T04:55:33.653Z,70.58
2022-09-11T04:59:36.898Z,70.63
2022-09-11T05:03:45.558Z,70.75
2022-09-11T05:07:50.364Z,70.72
2022-09-11T05:11:54.548Z,70.75
2022-09-11T05:16:02.661Z,70.74
2022-09-11T05:20:11.925Z,70.49
2022-09-11T05:24:15.464Z,70.58
2022-09-11T05:28:18.835Z,70.57
2022-09-11T05:32:21.887Z,70.34
2022-09-11T05:36:26.434Z,70.24
2022-09-11T05:40:29.597Z,70.37
2022-09-11T05:44:33.973Z,70.13
2022-09-11T05:48:38.603Z,69.96
2022-09-11T05:52:43.274Z,70.20
2022-09-11T05:56:46.367Z,70.23
2022-09-11T06:01:05.154Z,69.99
2022-09-11T06:05:10.922Z,69.99
2022-09-11T06:09:16.476Z,70.16
2022-09-11T06:13:19.943Z,69.95
2022-09-11T06:17:26.535Z,70.12
2022-09-11T06:21:30.503Z,70.52
2022-09-11T06:25:45.298Z,70.51
2022-09-11T06:29:49.369Z,70.46
2022-09-11T06:33:55.751Z,70.55
2022-09-11T06:37:58.748Z,70.65
2022-09-11T06:42:04.503Z,70.92
2022-09-11T06:46:15.662Z,70.80
2022-09-11T06:50:18.729Z,70.74
2022-09-11T06:54:39.028Z,70.73
2022-09-11T06:58:48.736Z,70.84
2022-09-11T07:02:53.019Z,70.75
2022-09-11T07:06:56.415Z,70.62
2022-09-11T07:11:04.179Z,70.95
2022-09-11T07:15:12.512Z,71.02
2022-09-11T07:19:15.636Z,71.33
2022-09-11T07:23:19.388Z,71.62
2022-09-11T07:27:22.962Z,71.81
2022-09-11T07:31:30.241Z,72.19
2022-09-11T07:35:38.147Z,72.56
2022-09-11T07:39:41.824Z,72.41
2022-09-11T07:43:55.783Z,72.26
2022-09-11T07:48:03.233Z,72.21
2022-09-11T07:52:07.692Z,72.15
2022-09-11T07:56:23.238Z,72.20
2022-09-11T08:00:27.332Z,72.25
2022-09-11T08:04:41.395Z,72.03
2022-09-11T08:08:45.908Z,71.95
2022-09-11T08:12:49.060Z,71.84
2022-09-11T08:16:53.583Z,71.31
2022-09-11T08:21:04.540Z,70.80
2022-09-11T08:25:08.057Z,70.47
2022-09-11T08:29:11.720Z,70.47
2022-09-11T08:33:14.944Z,70.72
2022-09-11T08:37:19.969Z,70.27
2022-09-11T08:41:33.596Z,69.70
2022-09-11T08:45:40.435Z,69.37
2022-09-11T08:49:45.197Z,68.23
2022-09-11T08:53:51.495Z,67.60
2022-09-11T08:58:05.569Z,67.72
2022-09-11T09:02:28.883Z,67.73
2022-09-11T09:06:51.481Z,67.37
2022-09-11T09:11:05.459Z,66.81
2022-09-11T09:15:29.363Z,66.48
2022-09-11T09:19:40.932Z,65.62
2022-09-11T09:23:49.908Z,65.99
2022-09-11T09:28:00.590Z,65.31
2022-09-11T09:32:08.211Z,64.18
2022-09-11T09:36:21.035Z,64.10
2022-09-11T09:40:26.862Z,63.97
2022-09-11T09:44:46.352Z,64.29
2022-09-11T09:48:49.416Z,64.63
2022-09-11T09:52:55.330Z,64.68
2022-09-11T09:57:03.526Z,65.03
2022-09-11T10:01:45.307Z,65.23
2022-09-11T10:05:50.531Z,65.21
2022-09-11T10:10:03.165Z,65.39
2022-09-11T10:14:08.948Z,65.50
2022-09-11T10:18:42.992Z,65.78
2022-09-11T10:22:47.370Z,65.94
2022-09-11T10:26:53.372Z,66.24
2022-09-11T10:31:00.230Z,67.10
2022-09-11T10:35:10.384Z,67.83
2022-09-11T10:39:20.742Z,68.90
2022-09-11T10:43:27.665Z,69.47
2022-09-11T10:47:33.849Z,69.78
2022-09-11T10:51:43.082Z,70.53
2022-09-11T10:55:58.089Z,70.67
2022-09-11T11:00:13.581Z,70.61
2022-09-11T11:04:17.100Z,70.58
2022-09-11T11:08:58.826Z,69.55
2022-09-11T11:13:15.789Z,69.45
2022-09-11T11:17:29.741Z,69.32
2022-09-11T11:21:49.289Z,68.75
2022-09-11T11:26:07.413Z,69.10
2022-09-11T11:30:15.841Z,69.20
2022-09-11T11:34:31.226Z,68.59
2022-09-11T11:38:40.840Z,68.33
2022-09-11T11:42:53.997Z,68.81
2022-09-11T11:47:05.419Z,68.56
2022-09-11T11:51:12.603Z,68.63
2022-09-11T11:55:18.748Z,68.20
2022-09-11T11:59:31.916Z,68.37
2022-09-11T12:03:40.842Z,67.48
2022-09-11T12:07:47.371Z,67.39
2022-09-11T12:11:54.045Z,66.95
2022-09-11T12:16:12.089Z,64.88
2022-09-11T12:20:30.776Z,65.90
2022-09-11T12:24:58.669Z,65.34
2022-09-11T12:29:35.790Z,64.52
2022-09-11T12:34:17.491Z,64.66
2022-09-11T12:38:26.923Z,64.37
2022-09-11T12:42:49.066Z,63.89
2022-09-11T12:47:12.569Z,63.66
2022-09-11T12:51:22.378Z,64.39
2022-09-11T12:55:34.361Z,64.01
2022-09-11T12:59:41.088Z,64.23
2022-09-11T13:03:53.847Z,64.03
2022-09-11T13:08:04.294Z,62.61
2022-09-11T13:12:40.982Z,62.03
2022-09-11T13:16:46.158Z,61.29
2022-09-11T13:20:59.528Z,61.77
2022-09-11T13:25:12.442Z,61.56
2022-09-11T13:29:15.792Z,61.25
2022-09-11T13:33:23.984Z,61.40
2022-09-11T13:37:38.019Z,60.61
2022-09-11T13:41:45.798Z,60.78
2022-09-11T13:45:49.267Z,60.64
2022-09-11T13:49:55.293Z,59.65
2022-09-11T13:54:06.013Z,59.60
2022-09-11T13:58:24.384Z,59.09
2022-09-11T14:02:46.957Z,59.15
2022-09-11T14:06:50.303Z,59.75
2022-09-11T14:10:56.612Z,59.83
2022-09-11T14:15:08.738Z,59.63
2022-09-11T14:19:18.111Z,60.07
2022-09-11T14:23:25.531Z,60.11
2022-09-11T14:27:39.526Z,59.71
2022-09-11T14:31:44.716Z,59.88
2022-09-11T14:35:50.315Z,59.65
2022-09-11T14:39:57.028Z,59.71
2022-09-11T14:44:00.673Z,59.79
2022-09-11T14:48:11.876Z,59.69
2022-09-11T14:52:17.335Z,59.38
2022-09-11T14:56:20.565Z,59.90
2022-09-11T15:00:27.356Z,59.91
2022-09-11T15:04:32.281Z,59.84
2022-09-11T15:08:35.322Z,60.01
2022-09-11T15:12:38.283Z,60.32
2022-09-11T15:16:42.083Z,60.86
2022-09-11T15:20:46.498Z,60.75
2022-09-11T15:24:49.850Z,60.52
2022-09-11T15:28:53.417Z,60.57
2022-09-11T15:32:56.706Z,62.04
2022-09-11T15:37:01.250Z,62.70
2022-09-11T15:41:05.609Z,63.37
2022-09-11T15:45:10.340Z,64.78
2022-09-11T15:49:13.317Z,64.36
2022-09-11T15:53:17.726Z,64.52
2022-09-11T15:57:20.920Z,65.25
2022-09-11T16:01:25.908Z,65.90
2022-09-11T16:05:29.809Z,66.59
2022-09-11T16:09:35.307Z,67.29
2022-09-11T16:13:40.697Z,67.43
2022-09-11T16:17:44.939Z,68.02
2022-09-11T16:21:48.781Z,68.26
2022-09-11T16:25:53.858Z,68.51
2022-09-11T16:30:32.219Z,69.05
2022-09-11T16:34:20.044Z,69.49
2022-09-11T16:38:24.071Z,69.89
2022-09-11T16:42:28.875Z,69.79
2022-09-11T16:46:33.401Z,70.59
2022-09-11T16:50:36.533Z,70.77
2022-09-11T16:54:39.862Z,71.04
2022-09-11T16:58:45.240Z,71.42
2022-09-11T17:02:48.615Z,71.66
2022-09-11T17:06:51.888Z,71.96
2022-09-11T17:10:57.431Z,72.36
2022-09-11T17:15:03.129Z,72.72
2022-09-11T17:19:08.263Z,73.00
2022-09-11T17:23:12.443Z,73.04
2022-09-11T17:27:15.566Z,73.12
2022-09-11T17:31:20.333Z,73.42
2022-09-11T17:35:23.938Z,73.53
2022-09-11T17:39:27.027Z,73.52
2022-09-11T17:43:30.119Z,73.70
2022-09-11T17:47:36.118Z,73.86
2022-09-11T17:51:39.337Z,74.12
2022-09-11T17:55:42.394Z,74.15
2022-09-11T17:59:45.593Z,74.50
2022-09-11T18:03:53.770Z,74.58
2022-09-11T18:08:00.054Z,74.88
2022-09-11T18:12:04.176Z,75.09
2022-09-11T18:16:11.367Z,75.27
2022-09-11T18:20:17.759Z,75.61
2022-09-11T18:24:21.258Z,75.90
2022-09-11T18:28:24.380Z,75.96
2022-09-11T18:32:27.479Z,76.24
2022-09-11T18:36:32.724Z,76.40
2022-09-11T18:40:35.801Z,76.70
2022-09-11T18:44:38.763Z,76.67
2022-09-11T18:48:44.409Z,76.85
2022-09-11T18:52:50.819Z,76.84
2022-09-11T18:56:54.052Z,77.03
2022-09-11T19:00:57.485Z,77.15
2022-09-11T19:05:01.416Z,76.92
2022-09-11T19:09:07.749Z,77.30
2022-09-11T19:13:10.912Z,77.39
2022-09-11T19:17:13.914Z,77.79
2022-09-11T19:21:20.842Z,77.64
2022-09-11T19:25:28.007Z,77.78
2022-09-11T19:29:31.203Z,78.02
2022-09-11T19:33:35.600Z,78.10
2022-09-11T19:37:39.324Z,77.93
2022-09-11T19:41:43.830Z,77.94
2022-09-11T19:45:46.808Z,77.75
2022-09-11T19:49:50.328Z,77.76
2022-09-11T19:53:56.144Z,77.88
2022-09-11T19:58:00.983Z,77.67
2022-09-11T20:02:04.246Z,77.41
2022-09-11T20:06:08.071Z,77.51
2022-09-11T20:10:11.189Z,77.81
2022-09-11T20:14:15.602Z,77.59
2022-09-11T20:18:18.655Z,77.63
2022-09-11T20:22:22.178Z,77.52
2022-09-11T20:26:27.384Z,77.62
2022-09-11T20:30:33.799Z,77.53
2022-09-11T20:34:36.795Z,77.46
2022-09-11T20:38:40.395Z,77.37
2022-09-11T20:42:43.587Z,77.53
2022-09-11T20:46:48.386Z,77.48
2022-09-11T20:50:52.217Z,77.38
2022-09-11T20:54:55.419Z,77.54
2022-09-11T20:59:00.016Z,77.44
2022-09-11T21:03:05.321Z,77.29
2022-09-11T21:07:08.408Z,77.57
2022-09-11T21:11:13.750Z,77.41
2022-09-11T21:15:16.923Z,77.46
2022-09-11T21:19:21.279Z,77.29
2022-09-11T21:23:24.927Z,77.32
2022-09-11T21:27:28.182Z,77.43
2022-09-11T21:31:31.437Z,77.39
2022-09-11T21:35:37.309Z,77.57
2022-09-11T21:39:41.947Z,77.78
2022-09-11T21:43:45.417Z,77.50
2022-09-11T21:47:51.897Z,77.25
2022-09-11T21:51:59.868Z,77.24
2022-09-11T21:56:03.695Z,77.26
2022-09-11T22:00:09.878Z,77.50
2022-09-11T22:04:13.291Z,77.44
2022-09-11T22:08:19.552Z,77.27
2022-09-11T22:12:22.707Z,77.10
2022-09-11T22:16:26.094Z,77.11
2022-09-11T22:20:29.221Z,77.05
2022-09-11T22:24:33.750Z,77.08
2022-09-11T22:28:37.488Z,76.88
2022-09-11T22:32:40.470Z,76.77
2022-09-11T22:36:43.503Z,76.91
2022-09-11T22:40:53.257Z,76.61
2022-09-11T22:44:56.287Z,76.50
2022-09-11T22:48:59.323Z,76.27
2022-09-11T22:53:02.463Z,76.21
2022-09-11T22:57:07.082Z,76.37
2022-09-11T23:01:12.663Z,76.42
2022-09-11T23:05:33.047Z,76.03
2022-09-11T23:09:38.414Z,76.19
2022-09-11T23:13:43.757Z,76.12
2022-09-11T23:17:46.955Z,76.19
2022-09-11T23:21:51.494Z,76.08
2022-09-11T23:25:54.663Z,76.07
2022-09-11T23:29:59.049Z,75.74
2022-09-11T23:34:03.712Z,75.70
2022-09-11T23:38:07.186Z,75.64
2022-09-11T23:42:10.164Z,75.76
2022-09-11T23:46:14.867Z,75.78
2022-09-11T23:50:18.460Z,75.42
2022-09-11T23:54:22.027Z,75.73
2022-09-11T23:58:25.571Z,75.86
